createdAt,value
2018-02-23T04:32:35.101Z,7.50
2018-02-23T04:35:09.247Z,8.93
2018-02-23T04:37:43.087Z,7.87
2018-02-23T04:40:16.820Z,9.43
2018-02-23T04:42:50.759Z,8.23
2018-02-23T04:45:24.485Z,6.62
2018-02-23T04:47:59.156Z,9.20
2018-02-23T04:50:32.963Z,8.73
2018-02-23T04:53:06.671Z,8.45
2018-02-23T04:55:42.295Z,7.55
2018-02-23T04:58:34.879Z,9.00
2018-02-23T05:01:08.608Z,9.15
2018-02-23T05:03:42.345Z,8.02
2018-02-23T05:06:16.944Z,7.80
2018-02-23T05:08:50.744Z,9.20
2018-02-23T05:11:25.622Z,5.60
2018-02-23T05:13:59.383Z,8.30
2018-02-23T05:16:33.576Z,7.50
2018-02-23T05:19:07.557Z,8.88
2018-02-23T05:21:42.148Z,5.10
2018-02-23T05:24:15.872Z,10.07
2018-02-23T05:26:49.772Z,8.27
2018-02-23T05:29:24.219Z,8.90
2018-02-23T05:31:58.955Z,8.98
2018-02-23T05:34:33.493Z,11.45
2018-02-23T05:37:07.246Z,5.93
2018-02-23T05:39:41.045Z,8.73
2018-02-23T05:42:15.254Z,9.10
2018-02-23T05:44:49.147Z,11.00
2018-02-23T05:47:23.652Z,9.40
2018-02-23T05:49:57.447Z,8.60
2018-02-23T05:52:32.167Z,11.18
2018-02-23T05:55:06.852Z,11.18
2018-02-23T05:57:40.579Z,8.63
2018-02-23T06:00:15.418Z,9.18
2018-02-23T06:02:49.137Z,10.68
2018-02-23T06:05:24.002Z,9.52
2018-02-23T06:07:57.717Z,10.40
2018-02-23T06:10:31.550Z,8.55
2018-02-23T06:13:05.256Z,9.43
2018-02-23T06:15:47.543Z,10.20
2018-02-23T06:18:27.048Z,10.25
2018-02-23T06:21:00.966Z,12.13
2018-02-23T06:23:35.328Z,8.32
2018-02-23T06:26:09.539Z,10.93
2018-02-23T06:28:43.383Z,8.35
2018-02-23T06:31:17.337Z,8.70
2018-02-23T06:33:51.258Z,10.15
2018-02-23T06:36:25.730Z,10.63
2018-02-23T06:39:00.620Z,10.73
2018-02-23T06:41:34.355Z,10.88
2018-02-23T06:44:10.150Z,11.40
2018-02-23T06:46:44.669Z,11.52
2018-02-23T06:49:18.628Z,9.70
2018-02-23T06:51:53.353Z,12.37
2018-02-23T06:54:28.322Z,11.80
2018-02-23T06:57:02.075Z,12.48
2018-02-23T06:59:35.969Z,11.68
2018-02-23T07:02:10.197Z,9.40
2018-02-23T07:04:45.047Z,11.73
2018-02-23T07:07:19.038Z,13.13
2018-02-23T07:09:52.959Z,9.75
2018-02-23T07:12:27.789Z,11.68
2018-02-23T07:15:01.977Z,11.50
2018-02-23T07:17:35.736Z,7.07
2018-02-23T07:20:09.572Z,13.30
2018-02-23T07:22:43.381Z,10.82
2018-02-23T07:25:17.813Z,13.43
2018-02-23T07:27:51.476Z,13.13
2018-02-23T07:30:25.315Z,13.65
2018-02-23T07:32:59.052Z,10.35
2018-02-23T07:35:32.894Z,13.45
2018-02-23T07:38:06.732Z,11.95
2018-02-23T07:40:40.643Z,13.75
2018-02-23T07:43:16.000Z,12.20
2018-02-23T07:45:53.562Z,14.02
2018-02-23T07:48:27.556Z,11.48
2018-02-23T07:51:01.312Z,12.90
2018-02-23T07:53:35.073Z,13.05
2018-02-23T07:56:09.794Z,14.15
2018-02-23T07:58:43.680Z,13.82
2018-02-23T08:01:17.458Z,18.23
2018-02-23T08:03:52.282Z,17.12
2018-02-23T08:06:26.074Z,13.32
2018-02-23T08:09:00.940Z,13.30
2018-02-23T08:11:34.776Z,14.25
2018-02-23T08:14:09.379Z,12.73
2018-02-23T08:16:43.952Z,12.68
2018-02-23T08:19:17.826Z,15.48
2018-02-23T08:21:52.378Z,13.25
2018-02-23T08:24:26.971Z,11.93
2018-02-23T08:27:01.009Z,14.48
2018-02-23T08:29:34.786Z,12.10
2018-02-23T08:32:08.616Z,11.77
2018-02-23T08:34:42.313Z,9.82
2018-02-23T08:37:17.194Z,14.20
2018-02-23T08:39:51.623Z,16.52
2018-02-23T08:42:25.377Z,15.23
2018-02-23T08:44:59.965Z,8.55
2018-02-23T08:47:34.638Z,14.13
2018-02-23T08:50:08.463Z,10.60
2018-02-23T08:52:42.280Z,12.93
2018-02-23T08:55:16.068Z,7.25
2018-02-23T08:57:50.659Z,13.43
2018-02-23T09:00:27.209Z,17.02
2018-02-23T09:03:01.136Z,14.05
2018-02-23T09:05:35.936Z,13.07
2018-02-23T09:08:09.783Z,13.15
2018-02-23T09:10:43.564Z,13.77
2018-02-23T09:13:17.427Z,14.07
2018-02-23T09:15:51.301Z,14.50
2018-02-23T09:18:25.123Z,10.00
2018-02-23T09:20:59.107Z,13.60
2018-02-23T09:23:33.037Z,13.18
2018-02-23T09:26:06.811Z,11.55
2018-02-23T09:28:41.799Z,13.98
2018-02-23T09:31:16.259Z,14.05
2018-02-23T09:34:03.996Z,13.70
2018-02-23T09:36:48.095Z,14.40
2018-02-23T09:39:22.315Z,8.95
2018-02-23T09:41:56.070Z,15.52
2018-02-23T09:44:30.660Z,10.70
2018-02-23T09:47:04.452Z,13.18
2018-02-23T09:49:38.946Z,13.20
2018-02-23T09:52:12.742Z,14.55
2018-02-23T09:54:47.361Z,15.77
2018-02-23T09:57:21.236Z,16.48
2018-02-23T09:59:55.115Z,17.33
2018-02-23T10:02:29.076Z,15.95
2018-02-23T10:05:03.780Z,15.05
2018-02-23T10:07:38.431Z,14.43
2018-02-23T10:10:12.108Z,18.25
2018-02-23T10:12:45.957Z,16.92
2018-02-23T10:15:20.544Z,15.02
2018-02-23T10:17:55.496Z,13.77
2018-02-23T10:20:29.635Z,14.38
2018-02-23T10:23:03.512Z,16.05
2018-02-23T10:25:38.967Z,16.42
2018-02-23T10:28:13.416Z,17.02
2018-02-23T10:30:47.171Z,14.05
2018-02-23T10:33:21.204Z,17.40
2018-02-23T10:35:55.005Z,15.80
2018-02-23T10:38:28.815Z,14.80
2018-02-23T10:41:03.555Z,17.02
2018-02-23T10:43:37.316Z,14.35
2018-02-23T10:46:11.909Z,17.20
2018-02-23T10:48:45.719Z,15.20
2018-02-23T10:51:20.466Z,16.50
2018-02-23T10:53:54.149Z,15.77
2018-02-23T10:56:29.478Z,17.52
2018-02-23T10:59:03.272Z,17.12
2018-02-23T11:01:36.989Z,17.65
2018-02-23T11:04:11.032Z,15.98
2018-02-23T11:06:44.698Z,15.40
2018-02-23T11:09:18.582Z,15.63
2018-02-23T11:11:52.369Z,13.48
2018-02-23T11:14:26.056Z,14.68
2018-02-23T11:17:00.607Z,15.48
2018-02-23T11:19:34.454Z,11.55
2018-02-23T11:22:08.296Z,16.85
2018-02-23T11:24:46.647Z,13.82
2018-02-23T11:27:20.280Z,18.42
2018-02-23T11:29:54.222Z,13.93
2018-02-23T11:32:35.808Z,12.63
2018-02-23T11:35:09.659Z,17.35
2018-02-23T11:37:43.476Z,15.95
2018-02-23T11:40:19.199Z,16.80
2018-02-23T11:42:53.040Z,16.95
2018-02-23T11:45:26.848Z,19.10
2018-02-23T11:48:01.457Z,16.35
2018-02-23T11:50:35.170Z,11.93
2018-02-23T11:53:09.004Z,11.20
2018-02-23T11:55:43.664Z,14.07
2018-02-23T11:58:17.491Z,16.50
2018-02-23T12:00:51.279Z,18.58
2018-02-23T12:03:26.269Z,15.93
2018-02-23T12:06:00.159Z,18.80
2018-02-23T12:08:35.261Z,16.05
2018-02-23T12:11:08.985Z,17.20
2018-02-23T12:13:42.569Z,16.85
2018-02-23T12:16:16.704Z,13.80
2018-02-23T12:18:51.511Z,17.27
2018-02-23T12:21:25.676Z,20.40
2018-02-23T12:24:01.201Z,13.57
2018-02-23T12:26:34.954Z,14.48
2018-02-23T12:29:09.614Z,18.48
2018-02-23T12:31:43.535Z,17.73
2018-02-23T12:34:17.390Z,17.80
2018-02-23T12:36:51.975Z,18.45
2018-02-23T12:39:25.680Z,20.45
2018-02-23T12:42:00.377Z,18.30
2018-02-23T12:44:34.370Z,20.55
2018-02-23T12:47:08.048Z,19.10
2018-02-23T12:49:43.697Z,21.35
2018-02-23T12:52:17.525Z,19.73
2018-02-23T12:54:52.070Z,19.58
2018-02-23T12:57:25.870Z,18.90
2018-02-23T12:59:59.624Z,21.00
2018-02-23T13:02:33.598Z,19.15
2018-02-23T13:05:08.158Z,20.77
2018-02-23T13:07:42.680Z,21.50
2018-02-23T13:10:17.290Z,17.25
2018-02-23T13:12:51.070Z,16.90
2018-02-23T13:15:25.034Z,19.05
2018-02-23T13:17:58.804Z,19.95
2018-02-23T13:20:32.667Z,17.30
2018-02-23T13:23:06.511Z,20.02
2018-02-23T13:25:41.314Z,16.65
2018-02-23T13:28:21.889Z,18.30
2018-02-23T13:30:58.730Z,18.75
2018-02-23T13:33:32.563Z,17.45
2018-02-23T13:36:07.707Z,17.67
2018-02-23T13:38:41.379Z,17.87
2018-02-23T13:41:20.840Z,19.25
2018-02-23T13:43:54.790Z,19.05
2018-02-23T13:46:29.608Z,18.80
2018-02-23T13:49:04.239Z,17.17
2018-02-23T13:51:38.075Z,18.65
2018-02-23T13:54:17.662Z,19.37
2018-02-23T13:56:51.624Z,19.33
2018-02-23T13:59:25.380Z,18.33
2018-02-23T14:02:01.885Z,18.45
2018-02-23T14:04:35.838Z,15.65
2018-02-23T14:20:32.881Z,14.02
2018-02-23T14:23:06.648Z,16.40
2018-02-23T14:25:40.755Z,13.98
2018-02-23T14:28:14.729Z,16.35
2018-02-23T14:30:48.503Z,14.02
2018-02-23T14:33:22.284Z,17.40
2018-02-23T14:35:56.883Z,16.98
2018-02-23T14:38:31.393Z,17.05
2018-02-23T14:41:05.162Z,11.05
2018-02-23T14:43:39.108Z,15.48
2018-02-23T14:46:12.864Z,15.48
2018-02-23T14:49:00.472Z,14.98
2018-02-23T14:51:34.953Z,17.77
2018-02-23T14:54:08.692Z,17.00
2018-02-23T14:56:42.489Z,17.77
2018-02-23T14:59:16.376Z,15.88
2018-02-23T15:01:50.986Z,18.42
2018-02-23T15:04:24.912Z,17.58
2018-02-23T15:06:59.143Z,16.55
2018-02-23T15:09:32.932Z,15.80
2018-02-23T15:12:06.597Z,17.30
2018-02-23T15:14:41.905Z,17.23
2018-02-23T15:17:16.511Z,18.60
2018-02-23T15:19:50.496Z,14.32
2018-02-23T15:22:24.165Z,25.27
2018-02-23T15:24:58.128Z,18.05
2018-02-23T15:27:31.826Z,19.48
2018-02-23T15:30:05.840Z,19.02
2018-02-23T15:32:40.524Z,16.98
2018-02-23T15:35:15.182Z,22.05
2018-02-23T15:37:49.753Z,19.60
2018-02-23T15:40:23.532Z,17.77
2018-02-23T15:42:58.181Z,20.62
2018-02-23T15:45:31.838Z,18.50
2018-02-23T15:51:11.929Z,18.55
2018-02-23T15:53:47.898Z,18.20
2018-02-23T15:56:22.723Z,17.35
2018-02-23T15:58:57.132Z,18.42
2018-02-23T16:01:32.058Z,20.30
2018-02-23T16:04:06.605Z,18.60
2018-02-23T16:06:40.265Z,21.23
2018-02-23T16:09:14.765Z,20.08
2018-02-23T16:11:48.587Z,21.85
2018-02-23T16:14:25.011Z,16.00
2018-02-23T16:16:58.919Z,20.77
2018-02-23T16:19:32.596Z,19.42
2018-02-23T16:22:06.328Z,21.20
2018-02-23T16:24:40.112Z,19.33
2018-02-23T16:27:15.071Z,20.27
2018-02-23T16:29:50.924Z,19.55
2018-02-23T16:32:24.794Z,20.17
2018-02-23T16:34:58.554Z,18.98
2018-02-23T16:37:32.385Z,20.02
2018-02-23T16:40:06.283Z,18.90
2018-02-23T16:42:40.162Z,18.20
2018-02-23T16:45:17.865Z,20.27
2018-02-23T16:47:51.737Z,19.90
2018-02-23T16:50:26.364Z,19.90
2018-02-23T16:53:02.232Z,20.62
2018-02-23T16:55:37.066Z,18.20
2018-02-23T16:58:11.871Z,20.52
2018-02-23T17:00:45.700Z,18.50
2018-02-23T17:03:19.633Z,19.42
2018-02-23T17:05:53.535Z,20.10
2018-02-23T17:08:27.512Z,19.55
2018-02-23T17:11:02.549Z,19.60
2018-02-23T17:13:37.168Z,18.67
2018-02-23T17:16:11.024Z,20.23
2018-02-23T17:18:46.902Z,19.62
2018-02-23T17:21:20.972Z,20.35
2018-02-23T17:23:55.598Z,18.83
2018-02-23T17:26:30.588Z,20.37
2018-02-23T17:29:04.448Z,20.23
2018-02-23T17:31:38.304Z,19.20
2018-02-23T17:34:12.951Z,19.23
2018-02-23T17:36:47.910Z,21.20
2018-02-23T17:39:25.367Z,20.00
2018-02-23T17:42:01.188Z,21.23
2018-02-23T17:44:35.857Z,18.92
2018-02-23T17:47:10.044Z,17.12
2018-02-23T17:49:44.488Z,18.10
2018-02-23T17:52:19.126Z,20.15
2018-02-23T17:54:53.686Z,18.20
2018-02-23T17:57:27.823Z,18.48
2018-02-23T18:00:01.639Z,20.98
2018-02-23T18:02:35.465Z,21.85
2018-02-23T18:05:09.268Z,20.35
2018-02-23T18:07:43.018Z,21.20
2018-02-23T18:10:17.819Z,21.60
2018-02-23T18:12:51.644Z,20.02
2018-02-23T18:15:25.452Z,20.77
2018-02-23T18:18:02.544Z,20.27
2018-02-23T18:20:37.015Z,19.50
2018-02-23T18:23:10.843Z,19.33
2018-02-23T18:25:45.456Z,17.55
2018-02-23T18:28:20.005Z,21.40
2018-02-23T18:30:54.508Z,23.73
2018-02-23T18:33:28.415Z,17.67
2018-02-23T18:36:02.272Z,19.27
2018-02-23T18:38:37.043Z,14.57
2018-02-23T18:41:10.776Z,16.70
2018-02-23T18:43:44.963Z,18.52
2018-02-23T18:46:18.648Z,17.62
2018-02-23T18:48:52.469Z,20.02
2018-02-23T18:51:27.817Z,21.62
2018-02-23T18:54:02.664Z,13.80
2018-02-23T18:56:36.447Z,19.85
2018-02-23T18:59:10.345Z,13.82
2018-02-23T19:01:44.878Z,18.77
2018-02-23T19:04:18.915Z,19.05
2018-02-23T19:06:54.235Z,19.20
2018-02-23T19:09:28.061Z,18.10
2018-02-23T19:12:01.880Z,16.67
2018-02-23T19:14:36.468Z,20.30
2018-02-23T19:17:10.911Z,19.33
2018-02-23T19:19:44.749Z,18.67
2018-02-23T19:22:19.332Z,19.17
2018-02-23T19:24:53.250Z,17.30
2018-02-23T19:27:27.944Z,18.60
2018-02-23T19:30:02.610Z,19.73
2018-02-23T19:32:36.422Z,16.00
2018-02-23T19:35:10.916Z,17.77
2018-02-23T19:37:44.759Z,20.25
2018-02-23T19:40:18.617Z,13.98
2018-02-23T19:42:53.142Z,18.12
2018-02-23T19:45:27.034Z,20.33
2018-02-23T19:48:00.969Z,10.82
2018-02-23T19:50:34.812Z,14.68
2018-02-23T19:53:08.688Z,17.75
2018-02-23T19:55:42.434Z,14.27
2018-02-23T19:58:16.074Z,19.42
2018-02-23T20:00:49.886Z,18.92
2018-02-23T20:03:23.569Z,18.58
2018-02-23T20:05:57.543Z,18.58
2018-02-23T20:08:31.314Z,13.80
2018-02-23T20:11:05.124Z,19.40
2018-02-23T20:13:39.624Z,21.48
2018-02-23T20:16:13.501Z,20.55
2018-02-23T20:18:48.559Z,22.33
2018-02-23T20:21:22.627Z,20.95
2018-02-23T20:23:56.450Z,22.48
2018-02-23T20:26:31.047Z,20.73
2018-02-23T20:29:06.408Z,21.67
2018-02-23T20:31:40.256Z,14.87
2018-02-23T20:34:13.980Z,20.77
2018-02-23T20:36:48.666Z,20.25
2018-02-23T20:39:22.447Z,18.33
2018-02-23T20:41:56.302Z,18.67
2018-02-23T20:44:30.848Z,21.50
2018-02-23T20:47:04.703Z,21.75
2018-02-23T20:49:38.491Z,21.58
2018-02-23T20:52:12.355Z,20.33
2018-02-23T20:54:45.965Z,19.33
2018-02-23T20:57:20.686Z,19.87
2018-02-23T20:59:54.397Z,20.48
2018-02-23T21:02:29.065Z,20.67
2018-02-23T21:05:03.051Z,19.60
2018-02-23T21:07:36.847Z,14.85
2018-02-23T21:10:10.624Z,17.77
2018-02-23T21:12:44.487Z,23.08
2018-02-23T21:15:19.054Z,22.90
2018-02-23T21:17:52.912Z,22.95
2018-02-23T21:20:26.742Z,22.37
2018-02-23T21:23:00.611Z,20.27
2018-02-23T21:25:34.445Z,22.35
2018-02-23T21:28:09.140Z,22.17
2018-02-23T21:30:43.661Z,23.23
2018-02-23T21:33:17.540Z,23.20
2018-02-23T21:35:51.319Z,20.77
2018-02-23T21:38:25.157Z,22.42
2018-02-23T21:40:59.697Z,21.73
2018-02-23T21:43:33.526Z,18.30
2018-02-23T21:46:07.345Z,21.45
2018-02-23T21:48:41.332Z,19.55
2018-02-23T21:51:15.045Z,13.00
2018-02-23T21:53:48.874Z,22.17
2018-02-23T21:56:23.775Z,19.80
2018-02-23T21:58:57.532Z,14.73
